Hauptseite
METAR-TAF:

METAR-TAF

Flughäfen :

Nouakchott, Mauretanien

Flughafen Nouakchott-Oumtounsy

Breite: 18-18-36N, Länge: 015-58-11W, Höhe: 3 m

Beobachtung

Neuester Wetterbericht von vor 22 Minuten, um 11:30 UTC
Wind 13 kt aus Nordost
Temperatur 31°C
Luftfeuchtigkeit 29%
Luftdruck 1013 hPa
Sichtweite: 8000 m

METAR: GQNO 281130Z 04013KT 8000 NSC 31/11 Q1013 NOSIG

Zeit: 11:52 (11:52 UTC)

Prognose

Neuester Wetterbericht von vor 7 Stunden und 2 Minuten, um 04:50 UTC
Gültige Prognose vom 28 um 06 UTC bis 29 um 12 UTC
Wind 16 kt aus Nordost, Böen bis zu 26 kt
Sichtweite: 8000 m
Leicht bewölkt in der Höhe von 4000 ft, Kumulonimbus.
Wahrscheinlichkeit 30% :
Zeitweise
vom 28 um 06 UTC bis 28 um 10 UTC
Gewitter, Regen
Übergehend zu
vom 28 um 15 UTC bis 28 um 18 UTC
Wind 14 kt aus Nord/Nordwest

TAF: GQNO 280450Z 2806/2912 04016G26KT 8000 FEW040CB PROB30 TEMPO 2806/2810 TSRA BECMG 2815/2818 34014KT

Wetterbeobachtungen und Prognosen von mehr als 4000 Flughäfen (METAR und TAF Bericht).

Die verfügbaren Stationen werden durch gelbe und rote Markierungen auf der Karte dargestellt.

Führen Sie die Maus auf sie, um den Namen der Station zu sehen.

Darauf klicken, um die Beobachtung von Wetterbeobachtungen und Prognosen zu sehen.

Um die Karte zu ändern : klicken Sie auf den grünen Tasten mit einem schwarzen Kreuz Zum Vergrößern, auf den grünen Button mit einem Gedankenstrich zu verkleinern, oder auf die grünen Pfeile für benachbarte Karten.


METAR-TAF: